createdAt,value
2017-09-24T00:00:54.561Z,960.30
2017-09-24T00:01:54.577Z,960.30
2017-09-24T00:03:48.028Z,960.28
2017-09-24T00:04:48.011Z,960.31
2017-09-24T00:06:42.403Z,960.28
2017-09-24T00:07:42.419Z,960.29
2017-09-24T00:09:35.818Z,960.25
2017-09-24T00:10:35.828Z,960.20
2017-09-24T00:12:29.220Z,960.19
2017-09-24T00:13:29.236Z,960.19
2017-09-24T00:15:22.665Z,960.14
2017-09-24T00:16:22.653Z,960.12
2017-09-24T00:18:16.071Z,960.12
2017-09-24T00:19:16.093Z,960.16
2017-09-24T00:21:09.456Z,960.16
2017-09-24T00:22:09.495Z,960.15
2017-09-24T00:24:02.882Z,960.10
2017-09-24T00:25:02.877Z,960.09
2017-09-24T00:26:56.253Z,960.08
2017-09-24T00:27:56.276Z,960.05
2017-09-24T00:29:49.715Z,960.04
2017-09-24T00:30:49.672Z,960.03
2017-09-24T00:32:43.079Z,960.05
2017-09-24T00:33:43.100Z,960.02
2017-09-24T00:35:37.474Z,960.02
2017-09-24T00:36:37.484Z,960.01
2017-09-24T00:38:31.916Z,959.96
2017-09-24T00:39:31.894Z,959.95
2017-09-24T00:41:26.297Z,959.92
2017-09-24T00:42:26.299Z,959.95
2017-09-24T00:44:19.682Z,959.89
2017-09-24T00:45:19.727Z,959.88
2017-09-24T00:47:13.121Z,959.86
2017-09-24T00:48:13.078Z,959.83
2017-09-24T00:50:06.519Z,959.81
2017-09-24T00:51:06.500Z,959.78
2017-09-24T00:52:59.898Z,959.78
2017-09-24T00:53:59.908Z,959.79
2017-09-24T00:55:53.286Z,959.77
2017-09-24T00:56:53.318Z,959.80
2017-09-24T00:58:46.717Z,959.80
2017-09-24T00:59:46.721Z,959.79
2017-09-24T01:01:40.134Z,959.77
2017-09-24T01:02:40.122Z,959.78
2017-09-24T01:04:33.524Z,959.80
2017-09-24T01:05:33.531Z,959.77
2017-09-24T01:07:27.562Z,959.77
2017-09-24T01:08:27.592Z,959.78
2017-09-24T01:10:20.967Z,959.72
2017-09-24T01:11:20.973Z,959.75
2017-09-24T01:13:14.377Z,959.76
2017-09-24T01:14:14.357Z,959.73
2017-09-24T01:16:07.809Z,959.77
2017-09-24T01:17:07.798Z,959.77
2017-09-24T01:19:01.190Z,959.78
2017-09-24T01:20:01.190Z,959.77
2017-09-24T01:21:54.595Z,959.79
2017-09-24T01:22:54.597Z,959.77
2017-09-24T01:24:47.988Z,959.81
2017-09-24T01:25:48.024Z,959.83
2017-09-24T01:27:41.416Z,959.85
2017-09-24T01:28:41.400Z,959.82
2017-09-24T01:30:34.796Z,959.83
2017-09-24T01:31:34.810Z,959.84
2017-09-24T01:33:29.201Z,959.84
2017-09-24T01:34:29.207Z,959.85
2017-09-24T01:36:23.597Z,959.86
2017-09-24T01:37:23.598Z,959.86
2017-09-24T01:39:17.027Z,959.86
2017-09-24T01:40:16.999Z,959.89
2017-09-24T01:42:11.390Z,959.92
2017-09-24T01:43:11.413Z,959.94
2017-09-24T01:45:04.815Z,959.96
2017-09-24T01:46:04.817Z,959.98
2017-09-24T01:47:58.191Z,960.01
2017-09-24T01:48:58.219Z,960.00
2017-09-24T01:50:51.646Z,960.02
2017-09-24T01:51:51.627Z,960.02
2017-09-24T01:53:45.018Z,959.97
2017-09-24T01:54:45.016Z,959.98
2017-09-24T01:56:38.429Z,959.96
2017-09-24T01:57:38.435Z,959.92
2017-09-24T01:59:31.823Z,959.88
2017-09-24T02:00:31.813Z,959.90
2017-09-24T02:02:26.242Z,959.87
2017-09-24T02:03:26.242Z,959.86
2017-09-24T02:05:19.648Z,959.88
2017-09-24T02:06:19.673Z,959.89
2017-09-24T02:08:13.284Z,959.94
2017-09-24T02:09:13.263Z,959.95
2017-09-24T02:11:06.684Z,959.95
2017-09-24T02:12:06.681Z,959.96
2017-09-24T02:14:00.106Z,959.96
2017-09-24T02:15:00.088Z,959.91
2017-09-24T02:16:53.473Z,959.92
2017-09-24T02:17:53.489Z,959.89
2017-09-24T02:19:47.875Z,959.87
2017-09-24T02:20:47.894Z,959.84
2017-09-24T02:22:41.284Z,959.85
2017-09-24T02:23:41.292Z,959.90
2017-09-24T02:25:34.732Z,959.94
2017-09-24T02:26:34.723Z,959.92
2017-09-24T02:28:28.094Z,959.86
2017-09-24T02:29:28.131Z,959.90
2017-09-24T02:31:22.511Z,959.82
2017-09-24T02:32:22.525Z,959.82
2017-09-24T02:34:16.931Z,959.83
2017-09-24T02:35:16.918Z,959.80
2017-09-24T02:37:10.353Z,959.78
2017-09-24T02:38:10.332Z,959.78
2017-09-24T02:40:03.698Z,959.78
2017-09-24T02:41:03.743Z,959.79
2017-09-24T02:42:57.152Z,959.78
2017-09-24T02:43:57.127Z,959.80
2017-09-24T02:45:50.526Z,959.82
2017-09-24T02:46:50.536Z,959.85
2017-09-24T02:48:43.974Z,959.91
2017-09-24T02:49:43.946Z,959.92
2017-09-24T02:51:37.325Z,959.91
2017-09-24T02:52:37.348Z,959.90
2017-09-24T02:54:31.749Z,959.89
2017-09-24T02:55:31.773Z,959.92
2017-09-24T02:57:25.124Z,959.90
2017-09-24T02:58:25.155Z,959.89
2017-09-24T03:00:18.595Z,959.91
2017-09-24T03:01:18.576Z,959.91
2017-09-24T03:03:12.999Z,959.90
2017-09-24T03:04:12.966Z,959.89
2017-09-24T03:06:07.308Z,959.87
2017-09-24T03:07:07.280Z,959.88
2017-09-24T03:09:01.679Z,959.87
2017-09-24T03:10:01.713Z,959.86
2017-09-24T03:11:56.118Z,959.85
2017-09-24T03:12:56.087Z,959.84
2017-09-24T03:14:49.500Z,959.84
2017-09-24T03:15:49.516Z,959.85
2017-09-24T03:17:43.929Z,959.88
2017-09-24T03:18:43.877Z,959.90
2017-09-24T03:20:37.317Z,959.87
2017-09-24T03:21:37.297Z,959.86
2017-09-24T03:23:30.730Z,959.90
2017-09-24T03:24:30.729Z,959.87
2017-09-24T03:26:24.111Z,959.85
2017-09-24T03:27:24.118Z,959.83
2017-09-24T03:29:18.561Z,959.84
2017-09-24T03:30:18.523Z,959.86
2017-09-24T03:32:11.897Z,959.86
2017-09-24T03:33:11.898Z,959.84
2017-09-24T03:35:05.340Z,959.81
2017-09-24T03:36:05.316Z,959.86
2017-09-24T03:37:58.722Z,959.89
2017-09-24T03:38:58.725Z,959.93
2017-09-24T03:40:52.167Z,959.87
2017-09-24T03:41:52.138Z,959.92
2017-09-24T03:43:46.514Z,959.91
2017-09-24T03:44:46.548Z,959.89
2017-09-24T03:46:39.976Z,959.90
2017-09-24T03:47:39.948Z,959.89
2017-09-24T03:49:33.362Z,959.83
2017-09-24T03:50:33.390Z,959.82
2017-09-24T03:52:27.782Z,959.81
2017-09-24T03:53:27.725Z,959.80
2017-09-24T03:55:21.124Z,959.83
2017-09-24T03:56:21.141Z,959.83
2017-09-24T03:58:14.549Z,959.85
2017-09-24T03:59:14.559Z,959.84
2017-09-24T04:01:09.159Z,959.83
2017-09-24T04:02:09.174Z,959.85
2017-09-24T04:04:02.620Z,959.83
2017-09-24T04:05:02.577Z,959.79
2017-09-24T04:06:56.962Z,959.80
2017-09-24T04:07:56.971Z,959.79
2017-09-24T04:09:50.400Z,959.78
2017-09-24T04:10:50.378Z,959.81
2017-09-24T04:12:43.782Z,959.79
2017-09-24T04:13:43.758Z,959.82
2017-09-24T04:15:37.201Z,959.85
2017-09-24T04:16:37.255Z,959.88
2017-09-24T04:18:31.552Z,959.89
2017-09-24T04:19:31.593Z,959.89
2017-09-24T04:21:25.042Z,959.93
2017-09-24T04:22:25.024Z,959.94
2017-09-24T04:24:18.367Z,959.93
2017-09-24T04:25:18.370Z,959.97
2017-09-24T04:27:12.792Z,959.97
2017-09-24T04:28:12.779Z,959.94
2017-09-24T04:30:07.171Z,959.99
2017-09-24T04:31:07.194Z,959.99
2017-09-24T04:33:00.593Z,959.96
2017-09-24T04:34:00.624Z,960.00
2017-09-24T04:35:53.994Z,959.98
2017-09-24T04:36:54.005Z,959.98
2017-09-24T04:38:47.451Z,960.03
2017-09-24T04:39:47.401Z,960.03
2017-09-24T04:41:40.819Z,960.03
2017-09-24T04:42:40.827Z,960.02
2017-09-24T04:44:34.247Z,960.04
2017-09-24T04:45:34.225Z,960.05
2017-09-24T04:47:28.618Z,960.03
2017-09-24T04:48:28.611Z,960.04
2017-09-24T04:50:22.045Z,960.05
2017-09-24T04:51:22.050Z,960.07
2017-09-24T04:53:15.420Z,960.04
2017-09-24T04:54:15.477Z,960.08
2017-09-24T04:56:08.842Z,960.08
2017-09-24T04:57:08.838Z,960.06
2017-09-24T04:59:02.244Z,960.06
2017-09-24T05:00:02.206Z,960.06
2017-09-24T05:01:55.647Z,960.06
2017-09-24T05:02:55.623Z,960.05
2017-09-24T05:04:49.028Z,960.06
2017-09-24T05:05:49.038Z,960.06
2017-09-24T05:07:42.493Z,960.06
2017-09-24T05:08:42.449Z,960.09
2017-09-24T05:10:35.878Z,960.09
2017-09-24T05:11:35.871Z,960.11
2017-09-24T05:13:29.299Z,960.09
2017-09-24T05:14:29.270Z,960.08
2017-09-24T05:16:22.708Z,960.09
2017-09-24T05:17:22.700Z,960.07
2017-09-24T05:19:16.116Z,960.05
2017-09-24T05:20:16.079Z,960.02
2017-09-24T05:22:09.465Z,960.06
2017-09-24T05:23:09.494Z,960.03
2017-09-24T05:25:02.923Z,960.05
2017-09-24T05:26:02.922Z,960.05
2017-09-24T05:27:57.284Z,960.04
2017-09-24T05:28:57.313Z,960.00
2017-09-24T05:30:51.770Z,959.98
2017-09-24T05:31:51.710Z,959.97
2017-09-24T05:33:46.142Z,960.02
2017-09-24T05:34:46.109Z,959.97
2017-09-24T05:36:39.516Z,960.05
2017-09-24T05:37:39.522Z,960.04
2017-09-24T05:39:32.910Z,960.03
2017-09-24T05:40:32.907Z,960.10
2017-09-24T05:42:26.324Z,960.13
2017-09-24T05:43:26.303Z,960.17
2017-09-24T05:45:19.691Z,960.24
2017-09-24T05:46:19.704Z,960.23
2017-09-24T05:48:13.162Z,960.23
2017-09-24T05:49:13.111Z,960.24
2017-09-24T05:51:06.507Z,960.26
2017-09-24T05:52:06.528Z,960.28
2017-09-24T05:54:00.901Z,960.29
2017-09-24T05:55:00.913Z,960.32
2017-09-24T05:56:54.332Z,960.35
2017-09-24T05:57:54.311Z,960.31
2017-09-24T05:59:47.773Z,960.36
2017-09-24T06:00:47.740Z,960.34
2017-09-24T06:02:41.094Z,960.33
2017-09-24T06:03:41.124Z,960.35
2017-09-24T06:05:34.571Z,960.37
2017-09-24T06:06:42.144Z,960.41
2017-09-24T06:08:27.947Z,960.39
2017-09-24T06:09:27.898Z,960.38
2017-09-24T06:11:21.347Z,960.41
2017-09-24T06:12:21.359Z,960.40
2017-09-24T06:14:16.155Z,960.45
2017-09-24T06:15:16.873Z,960.47
2017-09-24T06:17:09.157Z,960.50
2017-09-24T06:18:09.176Z,960.52
2017-09-24T06:20:05.075Z,960.54
2017-09-24T06:21:02.529Z,960.52
2017-09-24T06:22:55.950Z,960.49
2017-09-24T06:23:55.949Z,960.51
2017-09-24T06:25:49.367Z,960.52
2017-09-24T06:26:49.411Z,960.50
2017-09-24T06:28:42.794Z,960.54
2017-09-24T06:29:42.822Z,960.57
2017-09-24T06:31:36.222Z,960.62
2017-09-24T06:32:36.229Z,960.62
2017-09-24T06:34:32.861Z,960.63
2017-09-24T06:35:29.644Z,960.68
2017-09-24T06:37:23.020Z,960.70
2017-09-24T06:38:23.043Z,960.69
2017-09-24T06:40:17.682Z,960.70
2017-09-24T06:41:17.440Z,960.67
2017-09-24T06:43:10.874Z,960.71
2017-09-24T06:44:10.862Z,960.76
2017-09-24T06:46:05.393Z,960.85
2017-09-24T06:47:05.377Z,960.84
2017-09-24T06:48:58.746Z,960.84
2017-09-24T06:49:58.824Z,960.88
2017-09-24T06:51:53.278Z,960.86
2017-09-24T06:52:53.252Z,960.86
2017-09-24T06:54:46.656Z,960.84
2017-09-24T06:55:46.710Z,960.87
2017-09-24T06:57:40.102Z,960.93
2017-09-24T06:58:40.058Z,960.95
2017-09-24T07:00:33.525Z,960.96
2017-09-24T07:01:33.482Z,960.96
2017-09-24T07:03:26.886Z,960.97
2017-09-24T07:04:26.906Z,960.98
2017-09-24T07:06:21.246Z,961.00
2017-09-24T07:07:21.274Z,961.02
2017-09-24T07:09:14.825Z,961.04
2017-09-24T07:10:14.701Z,961.04
2017-09-24T07:12:08.099Z,961.04
2017-09-24T07:13:08.088Z,960.98
2017-09-24T07:15:01.558Z,961.03
2017-09-24T07:16:01.538Z,961.00
2017-09-24T07:17:54.912Z,961.03
2017-09-24T07:18:54.987Z,961.03
2017-09-24T07:20:48.449Z,961.00
2017-09-24T07:21:48.404Z,961.00
2017-09-24T07:23:41.747Z,961.09
2017-09-24T07:24:41.793Z,961.02
2017-09-24T07:26:36.167Z,961.04
2017-09-24T07:27:36.189Z,961.04
2017-09-24T07:29:30.606Z,961.04
2017-09-24T07:30:30.636Z,961.03
2017-09-24T07:32:24.026Z,961.10
2017-09-24T07:33:23.994Z,961.14
2017-09-24T07:35:17.410Z,961.19
2017-09-24T07:36:17.415Z,961.21
2017-09-24T07:38:10.822Z,961.22
2017-09-24T07:39:10.817Z,961.28
2017-09-24T07:41:04.293Z,961.27
2017-09-24T07:42:04.207Z,961.29
2017-09-24T07:43:57.664Z,961.33
2017-09-24T07:44:57.801Z,961.35
2017-09-24T07:46:52.084Z,961.31
2017-09-24T07:47:52.070Z,961.33
2017-09-24T07:49:45.479Z,961.29
2017-09-24T07:50:45.441Z,961.27
2017-09-24T07:52:38.919Z,961.25
2017-09-24T07:53:38.886Z,961.30
2017-09-24T07:55:32.260Z,961.31
2017-09-24T07:56:32.268Z,961.32
2017-09-24T07:58:25.776Z,961.31
2017-09-24T07:59:26.015Z,961.37
2017-09-24T08:01:20.097Z,961.32
2017-09-24T08:02:28.852Z,961.35
2017-09-24T08:04:23.377Z,961.28
2017-09-24T08:05:15.608Z,961.29
2017-09-24T08:07:08.018Z,961.28
2017-09-24T08:08:07.958Z,961.31
2017-09-24T08:10:10.546Z,961.32
2017-09-24T08:11:01.716Z,961.33
2017-09-24T08:12:55.912Z,961.31
2017-09-24T08:13:55.870Z,961.30
2017-09-24T08:15:58.615Z,961.24
2017-09-24T08:16:50.313Z,961.23
2017-09-24T08:18:44.706Z,961.16
2017-09-24T08:21:52.940Z,961.24
2017-09-24T08:22:39.419Z,961.21
2017-09-24T08:24:42.411Z,961.28
2017-09-24T08:25:33.643Z,961.28
2017-09-24T08:27:27.037Z,961.26
2017-09-24T08:28:27.110Z,961.21
2017-09-24T08:30:30.718Z,961.23
2017-09-24T08:31:30.692Z,961.18
2017-09-24T08:33:15.319Z,961.28
2017-09-24T08:34:15.339Z,961.26
2017-09-24T08:36:18.415Z,961.25
2017-09-24T08:37:09.835Z,961.28
2017-09-24T08:39:03.272Z,961.26
2017-09-24T08:40:03.135Z,961.26
2017-09-24T08:41:56.706Z,961.23
2017-09-24T08:42:56.547Z,961.23
2017-09-24T08:44:50.116Z,961.29
2017-09-24T08:45:50.494Z,961.31
2017-09-24T08:47:43.423Z,961.34
2017-09-24T08:48:43.467Z,961.36
2017-09-24T08:50:36.816Z,961.40
2017-09-24T08:51:36.835Z,961.38
2017-09-24T08:53:30.311Z,961.37
2017-09-24T08:54:30.962Z,961.39
2017-09-24T08:56:24.959Z,961.44
2017-09-24T08:57:24.982Z,961.51
2017-09-24T08:59:18.378Z,961.52
2017-09-24T09:00:18.544Z,961.54
2017-09-24T09:02:12.753Z,961.52
2017-09-24T09:03:12.663Z,961.53
2017-09-24T09:05:06.798Z,961.50
2017-09-24T09:06:06.229Z,961.49
2017-09-24T09:07:59.525Z,961.49
2017-09-24T09:09:01.307Z,961.45
2017-09-24T09:10:53.948Z,961.43
2017-09-24T09:11:54.141Z,961.45
2017-09-24T09:13:48.295Z,961.46
2017-09-24T09:14:48.529Z,961.48
2017-09-24T09:16:42.598Z,961.48
2017-09-24T09:17:42.040Z,961.53
2017-09-24T09:19:36.444Z,961.52
2017-09-24T09:20:36.829Z,961.50
2017-09-24T09:22:30.891Z,961.52
2017-09-24T09:23:39.430Z,961.53
2017-09-24T09:25:25.098Z,961.50
2017-09-24T09:26:25.292Z,961.50
2017-09-24T09:28:18.628Z,961.45
2017-09-24T09:29:18.588Z,961.42
2017-09-24T09:31:14.021Z,961.43
2017-09-24T09:32:14.138Z,961.39
2017-09-24T09:34:09.439Z,961.40
2017-09-24T09:35:11.417Z,961.38
2017-09-24T09:37:04.955Z,961.32
2017-09-24T09:38:03.839Z,961.35
2017-09-24T09:39:59.095Z,961.27
2017-09-24T09:40:58.547Z,961.33
2017-09-24T09:42:52.226Z,961.32
2017-09-24T09:43:51.747Z,961.30
2017-09-24T09:45:47.272Z,961.29
2017-09-24T09:46:47.332Z,961.29
2017-09-24T09:48:40.553Z,961.29
2017-09-24T09:49:40.616Z,961.30
2017-09-24T09:51:35.091Z,961.29
2017-09-24T09:52:35.259Z,961.30
2017-09-24T09:54:29.554Z,961.31
2017-09-24T09:55:29.443Z,961.31
2017-09-24T09:57:34.116Z,961.34
2017-09-24T09:58:25.182Z,961.30
2017-09-24T10:00:18.604Z,961.34
2017-09-24T10:01:18.388Z,961.29
2017-09-24T10:03:12.243Z,961.23
2017-09-24T10:04:12.057Z,961.27
2017-09-24T10:06:05.554Z,961.25
2017-09-24T10:07:05.388Z,961.22
2017-09-24T10:08:59.857Z,961.24
2017-09-24T10:10:00.050Z,961.15
2017-09-24T10:11:54.271Z,961.16
2017-09-24T10:12:54.266Z,961.18
2017-09-24T10:14:48.015Z,961.21
2017-09-24T10:15:48.489Z,961.26
2017-09-24T10:17:42.255Z,961.24
2017-09-24T10:18:42.242Z,961.26
2017-09-24T10:20:36.571Z,961.27
2017-09-24T10:21:36.577Z,961.27
2017-09-24T10:23:30.822Z,961.33
2017-09-24T10:24:30.747Z,961.27
2017-09-24T10:26:25.093Z,961.26
2017-09-24T10:27:25.118Z,961.25
2017-09-24T10:29:18.490Z,961.08
2017-09-24T10:30:18.457Z,961.10
2017-09-24T10:32:11.820Z,961.27
2017-09-24T10:33:11.957Z,961.26
2017-09-24T10:35:05.319Z,961.26
2017-09-24T10:36:05.350Z,961.33
2017-09-24T10:37:58.741Z,961.30
2017-09-24T10:38:58.750Z,961.31
2017-09-24T10:40:52.195Z,961.38
2017-09-24T10:41:52.235Z,961.09
2017-09-24T10:43:45.820Z,961.08
2017-09-24T10:44:45.768Z,961.05
2017-09-24T10:46:39.085Z,961.03
2017-09-24T10:47:39.108Z,961.02
2017-09-24T10:49:32.509Z,961.14
2017-09-24T10:50:32.586Z,961.29
2017-09-24T10:52:27.036Z,961.46
2017-09-24T10:53:26.981Z,961.09
2017-09-24T10:55:21.477Z,961.43
2017-09-24T10:56:21.409Z,961.41
2017-09-24T10:58:14.913Z,961.46
2017-09-24T10:59:14.934Z,961.43
2017-09-24T11:01:08.304Z,961.39
2017-09-24T11:02:08.296Z,961.41
2017-09-24T11:04:01.714Z,961.45
2017-09-24T11:05:01.805Z,961.43
2017-09-24T11:06:55.192Z,961.44
2017-09-24T11:07:55.205Z,961.44
2017-09-24T11:09:48.535Z,961.40
2017-09-24T11:10:48.576Z,961.40
2017-09-24T11:12:42.210Z,961.39
2017-09-24T11:13:42.154Z,961.40
2017-09-24T11:15:35.901Z,961.44
2017-09-24T11:16:35.836Z,961.38
2017-09-24T11:18:30.863Z,961.36
2017-09-24T11:19:29.317Z,961.37
2017-09-24T11:21:23.622Z,961.38
2017-09-24T11:22:23.686Z,961.32
2017-09-24T11:24:17.088Z,961.29
2017-09-24T11:25:17.141Z,961.31
2017-09-24T11:27:10.567Z,961.30
2017-09-24T11:28:10.838Z,961.02
2017-09-24T11:30:04.033Z,961.01
2017-09-24T11:31:03.976Z,961.21
2017-09-24T11:32:57.446Z,961.18
2017-09-24T11:33:57.448Z,961.18
2017-09-24T11:35:50.837Z,961.10
2017-09-24T11:36:50.836Z,961.02
2017-09-24T11:38:44.236Z,960.82
2017-09-24T11:39:44.271Z,960.96
2017-09-24T11:41:38.731Z,960.98
2017-09-24T11:42:38.690Z,960.94
2017-09-24T11:44:32.176Z,960.99
2017-09-24T11:45:32.137Z,961.01
2017-09-24T11:47:25.584Z,961.00
2017-09-24T11:48:25.633Z,960.97
2017-09-24T11:50:19.091Z,960.94
2017-09-24T11:51:18.974Z,960.90
2017-09-24T11:53:12.371Z,960.79
2017-09-24T11:54:12.446Z,960.80
2017-09-24T11:56:05.839Z,960.65
2017-09-24T11:57:05.866Z,960.67
2017-09-24T11:58:59.274Z,960.74
2017-09-24T11:59:59.271Z,960.71
2017-09-24T12:01:52.711Z,960.79
2017-09-24T12:02:52.772Z,960.78
2017-09-24T12:04:46.213Z,960.77
2017-09-24T12:05:46.176Z,960.74
2017-09-24T12:07:39.627Z,960.65
2017-09-24T12:08:39.611Z,960.68
2017-09-24T12:10:33.049Z,960.86
2017-09-24T12:11:33.073Z,960.79
2017-09-24T12:13:26.448Z,960.81
2017-09-24T12:14:26.480Z,960.80
2017-09-24T12:16:19.865Z,960.83
2017-09-24T12:17:20.260Z,960.85
2017-09-24T12:19:13.312Z,960.65
2017-09-24T12:20:13.361Z,960.61
2017-09-24T12:22:06.786Z,960.54
2017-09-24T12:23:06.829Z,960.57
2017-09-24T12:25:00.204Z,960.55
2017-09-24T12:26:00.252Z,960.61
2017-09-24T12:27:54.630Z,960.60
2017-09-24T12:28:54.672Z,960.59
2017-09-24T12:30:49.000Z,960.52
2017-09-24T12:31:49.077Z,960.54
2017-09-24T12:33:42.671Z,960.47
2017-09-24T12:34:42.488Z,960.49
2017-09-24T12:36:36.242Z,960.47
2017-09-24T12:37:35.968Z,960.46
2017-09-24T12:39:29.351Z,960.43
2017-09-24T12:40:29.304Z,960.42
2017-09-24T12:42:22.969Z,960.42
2017-09-24T12:43:22.784Z,960.41
2017-09-24T12:45:16.344Z,960.42
2017-09-24T12:46:16.288Z,960.42
2017-09-24T12:48:10.537Z,960.40
2017-09-24T12:49:09.665Z,960.40
2017-09-24T12:51:03.213Z,960.37
2017-09-24T12:52:03.177Z,960.39
2017-09-24T12:53:56.647Z,960.45
2017-09-24T12:54:56.543Z,960.43
2017-09-24T12:56:49.974Z,960.43
2017-09-24T12:57:50.018Z,960.47
2017-09-24T12:59:44.467Z,960.58
2017-09-24T13:00:44.486Z,960.53
2017-09-24T13:02:37.849Z,960.61
2017-09-24T13:03:37.833Z,960.63
2017-09-24T13:05:31.260Z,960.58
2017-09-24T13:06:31.326Z,960.57
2017-09-24T13:08:24.778Z,960.48
2017-09-24T13:09:24.720Z,960.47
2017-09-24T13:11:17.759Z,960.44
2017-09-24T13:12:17.772Z,960.40
2017-09-24T13:14:11.241Z,960.43
2017-09-24T13:15:11.275Z,960.43
2017-09-24T13:17:04.630Z,960.44
2017-09-24T13:18:04.671Z,960.48
2017-09-24T13:19:59.063Z,960.47
2017-09-24T13:20:59.094Z,960.48
2017-09-24T13:22:52.457Z,960.47
2017-09-24T13:23:52.508Z,960.45
2017-09-24T13:25:46.045Z,960.50
2017-09-24T13:26:45.904Z,960.49
2017-09-24T13:28:39.373Z,960.48
2017-09-24T13:29:39.391Z,960.49
2017-09-24T13:31:32.931Z,960.50
2017-09-24T13:32:32.732Z,960.49
2017-09-24T13:34:26.212Z,960.47
2017-09-24T13:35:26.172Z,960.48
2017-09-24T13:37:19.623Z,960.49
2017-09-24T13:38:19.579Z,960.48
2017-09-24T13:40:14.017Z,960.44
2017-09-24T13:41:14.122Z,960.44
2017-09-24T13:43:07.464Z,960.50
2017-09-24T13:44:07.427Z,960.49
2017-09-24T13:46:00.875Z,960.43
2017-09-24T13:47:00.878Z,960.40
2017-09-24T13:48:54.269Z,960.45
2017-09-24T13:49:54.258Z,960.37
2017-09-24T13:51:47.682Z,960.37
2017-09-24T13:52:47.718Z,960.35
2017-09-24T13:54:41.130Z,960.37
2017-09-24T13:55:41.181Z,960.37
2017-09-24T13:57:35.588Z,960.32
2017-09-24T13:58:35.584Z,960.32
2017-09-24T14:00:30.040Z,960.37
2017-09-24T14:01:30.072Z,960.34
2017-09-24T14:03:24.597Z,960.37
2017-09-24T14:04:24.497Z,960.35
2017-09-24T14:06:18.933Z,960.36
2017-09-24T14:07:18.890Z,960.37
2017-09-24T14:09:12.297Z,960.37
2017-09-24T14:10:12.309Z,960.33
2017-09-24T14:12:05.774Z,960.27
2017-09-24T14:13:05.717Z,960.30
2017-09-24T14:14:59.171Z,960.31
2017-09-24T14:15:59.220Z,960.31
2017-09-24T14:17:53.688Z,960.30
2017-09-24T14:18:53.620Z,960.29
2017-09-24T14:20:49.024Z,960.35
2017-09-24T14:21:49.050Z,960.33
2017-09-24T14:23:42.467Z,960.31
2017-09-24T14:24:42.498Z,960.32
2017-09-24T14:26:35.931Z,960.31
2017-09-24T14:27:35.851Z,960.29
2017-09-24T14:29:30.410Z,960.30
2017-09-24T14:30:30.295Z,960.28
2017-09-24T14:32:23.682Z,960.25
2017-09-24T14:33:23.722Z,960.22
2017-09-24T14:35:17.168Z,960.21
2017-09-24T14:36:17.127Z,960.23
2017-09-24T14:38:11.571Z,960.25
2017-09-24T14:39:11.572Z,960.24
2017-09-24T14:41:06.045Z,960.26
2017-09-24T14:42:05.980Z,960.28
2017-09-24T14:44:00.395Z,960.34
2017-09-24T14:45:00.417Z,960.39
2017-09-24T14:47:03.440Z,960.44
2017-09-24T14:47:55.022Z,960.57
2017-09-24T14:49:48.260Z,960.54
2017-09-24T14:50:48.242Z,960.48
2017-09-24T14:52:41.664Z,960.49
2017-09-24T14:53:41.627Z,960.55
2017-09-24T14:55:36.113Z,960.53
2017-09-24T14:56:36.038Z,960.58
2017-09-24T14:58:30.452Z,960.54
2017-09-24T14:59:30.450Z,960.52
2017-09-24T15:01:24.888Z,960.63
2017-09-24T15:02:24.853Z,960.63
2017-09-24T15:04:18.242Z,960.63
2017-09-24T15:05:18.286Z,960.66
2017-09-24T15:07:12.727Z,960.72
2017-09-24T15:08:12.655Z,960.70
2017-09-24T15:10:07.066Z,960.82
2017-09-24T15:11:07.094Z,960.84
2017-09-24T15:13:01.542Z,960.89
2017-09-24T15:14:01.512Z,960.91
2017-09-24T15:15:54.917Z,960.89
2017-09-24T15:16:54.933Z,960.94
2017-09-24T15:18:49.480Z,960.93
2017-09-24T15:19:49.396Z,960.95
2017-09-24T15:21:42.734Z,960.99
2017-09-24T15:22:42.751Z,961.00
2017-09-24T15:24:36.176Z,960.95
2017-09-24T15:25:36.148Z,960.97
2017-09-24T15:27:29.549Z,960.93
2017-09-24T15:28:29.589Z,960.90
2017-09-24T15:30:23.016Z,960.93
2017-09-24T15:31:23.006Z,960.92
2017-09-24T15:33:16.386Z,960.94
2017-09-24T15:34:16.400Z,960.92
2017-09-24T15:36:09.792Z,960.96
2017-09-24T15:37:09.800Z,960.96
2017-09-24T15:39:04.235Z,960.94
2017-09-24T15:40:04.210Z,960.90
2017-09-24T15:41:58.579Z,960.93
2017-09-24T15:42:58.595Z,960.88
2017-09-24T15:44:52.017Z,960.91
2017-09-24T15:45:52.000Z,960.88
2017-09-24T15:47:46.404Z,960.87
2017-09-24T15:48:46.416Z,960.83
2017-09-24T15:50:40.907Z,960.81
2017-09-24T15:51:40.814Z,960.79
2017-09-24T15:53:34.271Z,960.71
2017-09-24T15:54:34.252Z,960.68
2017-09-24T15:56:28.640Z,960.67
2017-09-24T15:57:28.627Z,960.68
2017-09-24T15:59:22.039Z,960.66
2017-09-24T16:00:22.044Z,960.70
2017-09-24T16:02:15.507Z,960.70
2017-09-24T16:03:15.746Z,960.75
2017-09-24T16:05:08.880Z,960.78
2017-09-24T16:06:08.874Z,960.81
2017-09-24T16:08:02.297Z,960.83
2017-09-24T16:09:02.279Z,960.83
2017-09-24T16:10:55.683Z,960.85
2017-09-24T16:11:55.684Z,960.88
2017-09-24T16:13:49.127Z,960.92
2017-09-24T16:14:49.095Z,960.94
2017-09-24T16:16:42.542Z,960.96
2017-09-24T16:17:42.527Z,961.04
2017-09-24T16:19:35.933Z,961.02
2017-09-24T16:20:35.899Z,961.05
2017-09-24T16:22:29.299Z,961.02
2017-09-24T16:23:29.307Z,961.07
2017-09-24T16:25:22.767Z,961.01
2017-09-24T16:26:22.725Z,961.05
2017-09-24T16:28:16.134Z,961.02
2017-09-24T16:29:16.167Z,961.03
2017-09-24T16:31:09.589Z,961.01
2017-09-24T16:32:09.544Z,961.00
2017-09-24T16:34:02.940Z,961.00
2017-09-24T16:35:02.969Z,960.98
2017-09-24T16:36:56.383Z,961.02
2017-09-24T16:37:56.365Z,961.07
2017-09-24T16:39:49.780Z,961.06
2017-09-24T16:40:49.777Z,961.07
2017-09-24T16:42:43.400Z,961.07
2017-09-24T16:43:43.208Z,961.09
2017-09-24T16:45:36.598Z,961.09
2017-09-24T16:46:36.580Z,961.10
2017-09-24T16:48:30.020Z,961.12
2017-09-24T16:49:29.994Z,961.10
2017-09-24T16:51:24.638Z,961.16
2017-09-24T16:52:24.586Z,961.15
2017-09-24T16:54:17.977Z,961.19
2017-09-24T16:55:17.992Z,961.13
2017-09-24T16:57:12.413Z,961.12
2017-09-24T16:58:12.412Z,961.12
2017-09-24T17:00:05.774Z,961.13
2017-09-24T17:01:05.807Z,961.16
2017-09-24T17:03:00.280Z,961.12
2017-09-24T17:04:00.237Z,961.13
2017-09-24T17:05:54.653Z,961.07
2017-09-24T17:06:54.690Z,961.07
2017-09-24T17:08:48.125Z,961.01
2017-09-24T17:09:48.135Z,961.01
2017-09-24T17:11:41.962Z,961.01
2017-09-24T17:12:41.584Z,961.00
2017-09-24T17:14:36.014Z,960.99
2017-09-24T17:15:36.031Z,961.00
2017-09-24T17:17:29.519Z,960.97
2017-09-24T17:18:29.431Z,960.99
2017-09-24T17:20:22.908Z,960.99
2017-09-24T17:21:22.835Z,960.97
2017-09-24T17:23:15.984Z,960.96
2017-09-24T17:24:15.947Z,960.98
2017-09-24T17:26:09.936Z,960.98
2017-09-24T17:27:09.993Z,960.96
2017-09-24T17:29:04.469Z,960.95
2017-09-24T17:30:04.385Z,960.92
2017-09-24T17:31:58.108Z,960.91
2017-09-24T17:33:06.459Z,960.88
2017-09-24T17:34:51.212Z,960.91
2017-09-24T17:35:51.207Z,960.93
2017-09-24T17:37:45.640Z,960.93
2017-09-24T17:38:45.622Z,960.91
2017-09-24T17:40:40.043Z,960.96
2017-09-24T17:41:40.106Z,960.94
2017-09-24T17:43:33.414Z,960.96
2017-09-24T17:44:33.486Z,960.95
2017-09-24T17:46:27.928Z,960.96
2017-09-24T17:47:27.915Z,960.93
2017-09-24T17:49:22.507Z,960.93
2017-09-24T17:50:22.333Z,960.90
2017-09-24T17:52:16.837Z,960.91
2017-09-24T17:53:16.883Z,960.93
2017-09-24T17:55:12.199Z,960.90
2017-09-24T17:56:12.249Z,960.90
2017-09-24T17:58:06.662Z,960.88
2017-09-24T17:59:06.654Z,960.90
2017-09-24T18:01:01.075Z,960.92
2017-09-24T18:02:01.060Z,960.92
2017-09-24T18:03:55.482Z,960.90
2017-09-24T18:04:55.460Z,960.90